Boston, New York
Current Conditions -  °F | °C
As of 1:54 AM on Sunday 26 Oct 2014 (Local Time) from KBUF Reporting Station
Few Clouds Few Clouds  
Wind Chill: 44°   Ceiling: Unl
Heat Index: 48°   Visibility: 10mi
Dew Point: 39°   Wind: 9mph
Humidity: 71%   Direction: 240°WSW
Pressure: 29.67"   Gusts: NA
Location:  42.63°N, 78.74°W
Report Text: KBUF 260554Z 24008KT 10SM FEW050 FEW060 09/04 A2967 RMK AO2 SLP050 60000 T00890039 10144 20089 53008
Loading
Personal Weather Stations






























Interactive Weather Map
Tropical Storm Tracking
New forecast layout! Learn more

10-Day Weather Forecast

Advertisements
Track Severe Weather on mobile